Paint Rock, Texas
Current Conditions -  °F | °C
As of 1:51 PM on Thursday 29 Jan 2015 (Local Time) from KSJT Reporting Station
Broken Clouds Broken Clouds  
Wind Chill: 66°   Ceiling: 11000
Heat Index: 66°   Visibility: 10mi
Dew Point: 35°   Wind: 20mph
Humidity: 32%   Direction: 40°NE
Pressure: 30.28"   Gusts: NA
Location:  31.51°N, 99.92°W
Report Text: KSJT 291951Z 04017KT 10SM SCT090 BKN110 19/02 A3028 RMK AO2 SLP246 T01890017
Loading
Personal Weather Stations






























Interactive Weather Map New forecast layout! Learn more

10-Day Weather Forecast

Advertisements
Track Severe Weather on mobile